ROMMA est une association bénévole à but non lucratif. Votre soutien est indispensable : ADHERER à ROMMA ou FAIRE un DON

Trept - (38, Isère)

Plateau de Crémieu (265 m)   Longitude: 5° 19' 27" E   Latitude: 45° 41' 15"N Station partenaire n°94
 

Détail journalier du     <<     >>

Température Precipitation Humidité Pression Vent Dir Rafale Dir. rafale
Heure (°C) (mm) (%) (hPa) (km/h) (km/h)
01:00 17.506610123NE18NE
02:00 16.706910125NE16N
03:00 15.707210122NE13ONO
04:00 14.807610122NE15NO
05:00 14.207810131SSO5SSO
06:00 13.708010131OSO5OSO
07:00 13.808110131NNE5NO
08:00 14.407910143NE10NE
09:00 17.107110142N16NNE
10:00 19.106510145NE16NNE
11:00 19.906310155NE19NO
12:00 21.806010155NNE18ENE
13:00 22.705510147NNE29N
14:00 23.305610148NNE24NE
15:00 24.504910138NE27NE
16:00 22.205410139NNE26NNE
17:00 24.704710133SE15NO
18:00 22.904610138NNE24NNE
19:00 21.305410137NNE24NE
20:00 20.705910146NNE19NNE
21:00
22:00
23:00
minuit

Graphique du 25-05-2019

 

Serveur OMMA